KALS

San Luis Valley Regional / Bergman Field Airport

Alamosa, Colorado, USA
KALS 201720Z 2018/2118 VRB03KT P6SM SCT200 FM202200 20006KT P6SM BKN200 FM211000 20010KT P6SM SCT200 FM211600 21015G28KT P6SM FEW070 SCT200
Issued Valid From Valid To
Jan-20 @ 17:20 UTC
(4 hours ago)
Jan-20 @ 18:00 UTC
(4 hours ago)
Jan-21 @ 18:00 UTC
(in 20 hours)
Jan-20 @ 18:00 to Jan-20 @ 22:00
KALS 201720Z 2018/2118 VRB03KT P6SM SCT200
Wind Visibility Clouds
Variable at 3 knots Greater than 6 miles
  • Scattered at 20,000' AGL
From Jan-20 @ 22:00 to Jan-21 @ 10:00
FM202200 20006KT P6SM BKN200
Wind Visibility Clouds
200° at 6 knots Greater than 6 miles
  • Broken at 20,000' AGL
From Jan-21 @ 10:00 to Jan-21 @ 16:00
FM211000 20010KT P6SM SCT200
Wind Visibility Clouds
200° at 10 knots Greater than 6 miles
  • Scattered at 20,000' AGL
From Jan-21 @ 16:00 to Jan-21 @ 18:00
FM211600 21015G28KT P6SM FEW070 SCT200
Wind Visibility Clouds
210° at 15 knots
 Gusting to 28 knots
Greater than 6 miles
  • Few at 7,000' AGL
  • Scattered at 20,000' AGL
KALS 201720Z 2018/2118 VRB03KT P6SM SCT200 FM202200 20006KT P6SM BKN200 FM211000 20010KT P6SM SCT200 FM211600 21015G28KT P6SM FEW070 SCT200
Issued Jan-20 @ 17:20 UTC
(4 hours ago)
Valid From Jan-20 @ 18:00 UTC
(4 hours ago)
Valid To Jan-21 @ 18:00 UTC
(in 20 hours)
Jan-20 @ 18:00 - Jan-20 @ 22:00
Wind Visibility
Variable at 3 knots Greater than 6 miles
Clouds
  • Scattered at 20,000' AGL
From Jan-20 @ 22:00 - Jan-21 @ 10:00
Wind Visibility
200° at 6 knots Greater than 6 miles
Clouds
  • Broken at 20,000' AGL
From Jan-21 @ 10:00 - Jan-21 @ 16:00
Wind Visibility
200° at 10 knots Greater than 6 miles
Clouds
  • Scattered at 20,000' AGL
From Jan-21 @ 16:00 - Jan-21 @ 18:00
Wind Visibility
210° at 15 knots
 Gusting to 28 knots
Greater than 6 miles
Clouds
  • Few at 7,000' AGL
  • Scattered at 20,000' AGL